Rechercher aéroport 
image banner adimage banner ad
image banner ad

KOSH - Wittman Rgnl

Situé à Oshkosh, United States

ICAO - OSH, IATA - OSH

Données fournies par Airmate  

Information générale

Coordonnées: N43°59'4" W88°33'25"
Élévation : 808 feet MSL.
Variation magnétique : -03° East
Évalué:
Voir évaluations: [VIEW]


Voir autres Aéroports à Wisconsin

Données opérationnelles

Accessible au public
Heure actuelle UTC:
Heure actuelle locale:
Météo
METAR: KOSH 061953Z 06008G17KT 030V100 10SM CLR 23/11 A3008 RMK AO2 SLP178 T02280111
Voir NOTAMs / SUP AIP / TFR affectant cet aéroport [VIEW]
Fréquences de communication: [VIEW]

Pistes:

Identifiant RWYQFULongueur (ft)Largeur (ft)SurfaceLDA (ft)
0545°369775ASPH
23225°369775ASPH
0991°6179150CONC5648
27271°6179150CONC5648
13129°306175ASPH
31309°306175ASPH
18181°8002150CONC
368002150CONC

Coordonnées de l'aéroport

Adresse: Oshkosh United States

Basler Flight Service

Basler Flight Service

Fournisseurs de fuel

Basler Flight Service

Basler Flight Service

Autres services d'aviation

Ateliers de réparation

Myers Aviation, Inc.

Myers Aviation, Inc.

Écoles de pilotage

Aviation Services LLC

Aviation Services LLC

Aviation Services Company, Llc

Aviation Services Company, Llc
sdondavis@gmail.com+1(920)410-3591

Autres services

Restaurants

O'Marro's Public House

O'Marro's Public House

Hardee's

Hardee's
+1 920-231-1234

Ichiban

Ichiban
+1 920-231-5555

Vue satellite de KOSH